createdAt,value
2018-10-09T00:00:50.256Z,9.87
2018-10-09T00:03:20.407Z,9.86
2018-10-09T00:05:50.361Z,9.86
2018-10-09T00:08:20.316Z,9.84
2018-10-09T00:10:53.306Z,9.83
2018-10-09T00:13:25.010Z,9.81
2018-10-09T00:15:57.842Z,9.80
2018-10-09T00:18:29.884Z,9.79
2018-10-09T00:21:00.793Z,9.78
2018-10-09T00:23:30.744Z,9.78
2018-10-09T00:26:03.724Z,9.77
2018-10-09T00:28:33.713Z,9.76
2018-10-09T00:31:08.230Z,9.74
2018-10-09T00:33:38.690Z,9.73
2018-10-09T00:36:08.806Z,9.71
2018-10-09T00:38:38.734Z,9.70
2018-10-09T00:41:12.954Z,9.68
2018-10-09T00:43:45.491Z,9.66
2018-10-09T00:46:18.194Z,9.64
2018-10-09T00:48:49.815Z,9.61
2018-10-09T00:51:22.733Z,9.58
2018-10-09T00:53:54.252Z,9.58
2018-10-09T00:56:25.723Z,9.54
2018-10-09T00:58:57.174Z,9.51
2018-10-09T01:01:27.218Z,9.49
2018-10-09T01:03:57.150Z,9.47
2018-10-09T01:06:27.107Z,9.44
2018-10-09T01:08:57.804Z,9.41
2018-10-09T01:11:29.453Z,9.37
2018-10-09T01:13:59.389Z,9.35
2018-10-09T01:16:34.887Z,9.33
2018-10-09T01:19:04.788Z,9.30
2018-10-09T01:21:35.813Z,9.28
2018-10-09T01:24:05.751Z,9.26
2018-10-09T01:26:35.699Z,9.25
2018-10-09T01:29:05.672Z,9.23
2018-10-09T01:31:35.588Z,9.20
2018-10-09T01:34:05.530Z,9.19
2018-10-09T01:36:35.476Z,9.18
2018-10-09T01:39:07.686Z,9.16
2018-10-09T01:41:39.000Z,9.15
2018-10-09T01:44:10.865Z,9.13
2018-10-09T01:46:44.829Z,9.12
2018-10-09T01:49:16.821Z,9.10
2018-10-09T01:51:56.255Z,9.08
2018-10-09T01:54:28.840Z,9.06
2018-10-09T01:57:02.335Z,9.06
2018-10-09T01:59:35.786Z,9.04
2018-10-09T02:02:09.315Z,9.02
2018-10-09T02:04:39.262Z,9.02
2018-10-09T02:07:10.102Z,8.99
2018-10-09T02:09:39.999Z,8.98
2018-10-09T02:12:10.827Z,8.97
2018-10-09T02:14:42.227Z,8.96
2018-10-09T02:17:13.078Z,8.95
2018-10-09T02:19:43.919Z,8.93
2018-10-09T02:22:13.737Z,8.91
2018-10-09T02:24:43.690Z,8.89
2018-10-09T02:27:16.445Z,8.88
2018-10-09T02:29:48.992Z,8.85
2018-10-09T02:32:21.766Z,8.82
2018-10-09T02:34:54.273Z,8.81
2018-10-09T02:37:26.036Z,8.78
2018-10-09T02:39:58.615Z,8.76
2018-10-09T02:42:31.020Z,8.73
2018-10-09T02:45:02.846Z,8.72
2018-10-09T02:47:36.414Z,8.68
2018-10-09T02:50:09.778Z,8.67
2018-10-09T02:52:41.920Z,8.64
2018-10-09T02:55:20.245Z,8.64
2018-10-09T02:57:53.911Z,8.60
2018-10-09T03:00:28.655Z,8.59
2018-10-09T03:03:04.912Z,8.56
2018-10-09T03:05:37.491Z,8.53
2018-10-09T03:08:09.283Z,8.51
2018-10-09T03:10:40.108Z,8.50
2018-10-09T03:13:13.955Z,8.48
2018-10-09T03:15:47.184Z,8.46
2018-10-09T03:18:18.461Z,8.43
2018-10-09T03:20:48.976Z,8.43
2018-10-09T03:23:19.111Z,8.41
2018-10-09T03:25:50.548Z,8.39
2018-10-09T03:28:21.429Z,8.39
2018-10-09T03:30:51.371Z,8.37
2018-10-09T03:33:24.687Z,8.36
2018-10-09T03:35:57.685Z,8.32
2018-10-09T03:38:28.194Z,8.31
2018-10-09T03:41:03.879Z,8.30
2018-10-09T03:43:35.316Z,8.30
2018-10-09T03:46:07.376Z,8.29
2018-10-09T03:48:40.241Z,8.29
2018-10-09T03:51:11.446Z,8.29
2018-10-09T03:53:45.490Z,8.29
2018-10-09T03:56:18.341Z,8.29
2018-10-09T03:58:51.183Z,8.30
2018-10-09T04:01:21.977Z,8.30
2018-10-09T04:03:54.458Z,8.31
2018-10-09T04:06:24.874Z,8.33
2018-10-09T04:08:58.204Z,8.32
2018-10-09T04:11:28.104Z,8.34
2018-10-09T04:14:00.377Z,8.34
2018-10-09T04:16:33.390Z,8.36
2018-10-09T04:19:05.491Z,8.36
2018-10-09T04:21:36.335Z,8.37
2018-10-09T04:24:07.127Z,8.38
2018-10-09T04:26:37.005Z,8.39
2018-10-09T04:29:06.963Z,8.41
2018-10-09T04:31:37.773Z,8.40
2018-10-09T04:34:09.182Z,8.40
2018-10-09T04:36:39.137Z,8.41
2018-10-09T04:39:12.310Z,8.41
2018-10-09T04:41:44.696Z,8.40
2018-10-09T04:44:22.017Z,8.41
2018-10-09T04:46:53.425Z,8.42
2018-10-09T04:49:24.551Z,8.42
2018-10-09T04:51:57.724Z,8.43
2018-10-09T04:54:29.578Z,8.43
2018-10-09T04:57:00.050Z,8.43
2018-10-09T04:59:31.455Z,8.44
2018-10-09T05:02:02.321Z,8.44
2018-10-09T05:04:32.187Z,8.45
2018-10-09T05:07:03.712Z,8.46
2018-10-09T05:09:33.642Z,8.44
2018-10-09T05:12:03.591Z,8.44
2018-10-09T05:14:34.725Z,8.44
2018-10-09T05:17:04.662Z,8.43
2018-10-09T05:19:34.608Z,8.43
2018-10-09T05:22:04.546Z,8.44
2018-10-09T05:24:34.555Z,8.44
2018-10-09T05:27:04.663Z,8.47
2018-10-09T05:29:34.674Z,8.45
2018-10-09T05:32:04.686Z,8.46
2018-10-09T05:34:34.655Z,8.47
2018-10-09T05:37:04.591Z,8.47
2018-10-09T05:39:34.537Z,8.48
2018-10-09T05:42:04.542Z,8.49
2018-10-09T05:44:34.526Z,8.50
2018-10-09T05:47:04.483Z,8.51
2018-10-09T05:49:34.425Z,8.52
2018-10-09T05:52:04.368Z,8.54
2018-10-09T05:54:34.312Z,8.55
2018-10-09T05:57:04.247Z,8.55
2018-10-09T05:59:34.253Z,8.57
2018-10-09T06:02:04.210Z,8.58
2018-10-09T06:04:34.152Z,8.59
2018-10-09T06:07:04.070Z,8.61
2018-10-09T06:09:33.958Z,8.64
2018-10-09T06:12:03.915Z,8.66
2018-10-09T06:14:33.927Z,8.67
2018-10-09T06:17:03.882Z,8.69
2018-10-09T06:19:33.800Z,8.73
2018-10-09T06:22:04.294Z,8.76
2018-10-09T06:24:34.235Z,8.80
2018-10-09T06:27:04.159Z,8.84
2018-10-09T06:29:34.090Z,8.87
2018-10-09T06:32:04.104Z,8.91
2018-10-09T06:34:34.083Z,8.95
2018-10-09T06:37:04.017Z,9.01
2018-10-09T06:39:33.979Z,9.05
2018-10-09T06:42:03.973Z,9.09
2018-10-09T06:44:33.904Z,9.14
2018-10-09T06:47:03.869Z,9.19
2018-10-09T06:49:33.827Z,9.25
2018-10-09T06:52:04.156Z,9.32
2018-10-09T06:54:34.115Z,9.39
2018-10-09T06:57:04.055Z,9.46
2018-10-09T06:59:34.918Z,9.53
2018-10-09T07:02:04.835Z,9.61
2018-10-09T07:04:34.803Z,9.68
2018-10-09T07:07:04.839Z,9.78
2018-10-09T07:09:34.798Z,9.87
2018-10-09T07:12:04.830Z,9.94
2018-10-09T07:14:34.783Z,10.05
2018-10-09T07:17:04.889Z,10.16
2018-10-09T07:19:34.977Z,10.25
2018-10-09T07:22:05.005Z,10.35
2018-10-09T07:24:34.987Z,10.46
2018-10-09T07:27:07.636Z,10.57
2018-10-09T07:29:37.653Z,10.68
2018-10-09T07:32:07.630Z,10.79
2018-10-09T07:34:37.569Z,10.90
2018-10-09T07:37:07.689Z,11.04
2018-10-09T07:39:37.677Z,11.15
2018-10-09T07:42:07.656Z,11.28
2018-10-09T07:44:37.661Z,11.39
2018-10-09T07:47:07.602Z,11.50
2018-10-09T07:49:37.597Z,11.64
2018-10-09T07:52:07.618Z,11.76
2018-10-09T07:54:37.607Z,11.91
2018-10-09T07:57:07.739Z,12.07
2018-10-09T07:59:37.743Z,12.22
2018-10-09T08:02:07.776Z,12.41
2018-10-09T08:04:37.797Z,12.57
2018-10-09T08:07:07.952Z,12.75
2018-10-09T08:09:37.886Z,12.91
2018-10-09T08:12:08.032Z,13.06
2018-10-09T08:14:38.021Z,13.22
2018-10-09T08:17:08.138Z,13.35
2018-10-09T08:19:38.062Z,13.48
2018-10-09T08:22:08.269Z,13.60
2018-10-09T08:24:38.196Z,13.71
2018-10-09T08:27:08.244Z,13.78
2018-10-09T08:29:38.165Z,13.87
2018-10-09T08:32:08.510Z,13.94
2018-10-09T08:34:38.626Z,14.00
2018-10-09T08:37:08.608Z,14.06
2018-10-09T08:39:38.584Z,14.12
2018-10-09T08:42:08.637Z,14.19
2018-10-09T08:44:38.623Z,14.25
2018-10-09T08:47:08.579Z,14.31
2018-10-09T08:49:38.422Z,14.40
2018-10-09T08:52:08.434Z,14.52
2018-10-09T08:54:38.355Z,14.62
2018-10-09T08:57:08.454Z,14.76
2018-10-09T08:59:38.494Z,14.91
2018-10-09T09:02:08.525Z,15.05
2018-10-09T09:04:38.481Z,15.22
2018-10-09T09:07:08.452Z,15.38
2018-10-09T09:09:38.423Z,15.54
2018-10-09T09:12:08.443Z,15.68
2018-10-09T09:14:38.437Z,15.80
2018-10-09T09:17:08.620Z,15.91
2018-10-09T09:19:38.548Z,16.04
2018-10-09T09:22:08.542Z,16.14
2018-10-09T09:24:38.531Z,16.25
2018-10-09T09:27:08.550Z,16.33
2018-10-09T09:29:38.496Z,16.46
2018-10-09T09:32:08.596Z,16.57
2018-10-09T09:34:38.594Z,16.70
2018-10-09T09:37:08.581Z,16.85
2018-10-09T09:39:38.521Z,17.00
2018-10-09T09:42:08.613Z,17.16
2018-10-09T09:44:38.604Z,17.32
2018-10-09T09:47:08.562Z,17.49
2018-10-09T09:49:38.510Z,17.65
2018-10-09T09:52:08.664Z,17.81
2018-10-09T09:54:38.494Z,17.97
2018-10-09T09:57:08.468Z,18.11
2018-10-09T09:59:38.361Z,18.23
2018-10-09T10:02:08.439Z,18.35
2018-10-09T10:04:38.431Z,18.45
2018-10-09T10:07:08.391Z,18.57
2018-10-09T10:09:38.395Z,18.68
2018-10-09T10:12:08.336Z,18.82
2018-10-09T10:14:38.309Z,18.95
2018-10-09T10:17:08.271Z,19.08
2018-10-09T10:19:38.454Z,19.21
2018-10-09T10:22:08.386Z,19.33
2018-10-09T10:24:38.428Z,19.46
2018-10-09T10:27:08.427Z,19.59
2018-10-09T10:29:38.421Z,19.71
2018-10-09T10:32:08.389Z,19.84
2018-10-09T10:34:38.331Z,19.98
2018-10-09T10:37:08.569Z,20.13
2018-10-09T10:39:38.523Z,20.25
2018-10-09T10:42:08.608Z,20.37
2018-10-09T10:44:38.664Z,20.49
2018-10-09T10:47:08.598Z,20.61
2018-10-09T10:49:38.550Z,20.73
2018-10-09T10:52:08.636Z,20.84
2018-10-09T10:54:38.608Z,20.97
2018-10-09T10:57:08.557Z,21.09
2018-10-09T10:59:38.498Z,21.21
2018-10-09T11:02:08.791Z,21.35
2018-10-09T11:04:38.799Z,21.45
2018-10-09T11:07:08.832Z,21.57
2018-10-09T11:09:38.848Z,21.68
2018-10-09T11:12:08.842Z,21.80
2018-10-09T11:14:38.884Z,21.89
2018-10-09T11:17:08.854Z,21.97
2018-10-09T11:19:38.788Z,22.03
2018-10-09T11:22:08.945Z,22.08
2018-10-09T11:24:40.297Z,22.13
2018-10-09T11:27:15.392Z,22.17
2018-10-09T11:29:49.705Z,22.19
2018-10-09T11:32:20.352Z,22.22
2018-10-09T11:34:50.875Z,22.23
2018-10-09T11:37:22.834Z,22.25
2018-10-09T11:39:57.004Z,22.25
2018-10-09T11:42:26.966Z,22.22
2018-10-09T11:44:58.257Z,22.19
2018-10-09T11:47:28.904Z,22.13
2018-10-09T11:50:01.559Z,22.09
2018-10-09T11:52:32.868Z,22.08
2018-10-09T11:55:02.876Z,22.10
2018-10-09T11:57:33.158Z,22.14
2018-10-09T12:00:06.613Z,22.19
2018-10-09T12:02:40.951Z,22.26
2018-10-09T12:05:16.041Z,22.33
2018-10-09T12:07:48.439Z,22.41
2018-10-09T12:10:19.933Z,22.49
2018-10-09T12:12:53.167Z,22.55
2018-10-09T12:15:25.321Z,22.62
2018-10-09T12:17:59.741Z,22.69
2018-10-09T12:20:29.755Z,22.74
2018-10-09T12:23:02.468Z,22.77
2018-10-09T12:25:33.758Z,22.79
2018-10-09T12:28:06.149Z,22.81
2018-10-09T12:30:38.597Z,22.85
2018-10-09T12:33:08.768Z,22.90
2018-10-09T12:35:40.129Z,22.93
2018-10-09T12:38:11.982Z,22.99
2018-10-09T12:40:43.318Z,23.05
2018-10-09T12:43:14.582Z,23.11
2018-10-09T12:45:48.139Z,23.18
2018-10-09T12:48:18.132Z,23.23
2018-10-09T12:50:48.179Z,23.29
2018-10-09T12:53:19.526Z,23.34
2018-10-09T12:55:53.120Z,23.38
2018-10-09T12:58:25.703Z,23.43
2018-10-09T13:00:57.458Z,23.46
2018-10-09T13:03:30.517Z,23.51
2018-10-09T13:06:01.496Z,23.56
2018-10-09T13:08:32.799Z,23.60
2018-10-09T13:11:04.404Z,23.66
2018-10-09T13:13:36.329Z,23.70
2018-10-09T13:16:09.223Z,23.73
2018-10-09T13:18:39.177Z,23.74
2018-10-09T13:21:12.612Z,23.75
2018-10-09T13:23:43.688Z,23.77
2018-10-09T13:26:14.402Z,23.80
2018-10-09T13:28:45.580Z,23.85
2018-10-09T13:31:15.621Z,23.89
2018-10-09T13:33:46.146Z,23.94
2018-10-09T13:36:18.552Z,24.02
2018-10-09T13:38:50.838Z,24.10
2018-10-09T13:41:22.748Z,24.19
2018-10-09T13:43:53.775Z,24.25
2018-10-09T13:46:25.249Z,24.32
2018-10-09T13:48:57.305Z,24.41
2018-10-09T13:51:28.910Z,24.46
2018-10-09T13:54:03.193Z,24.51
2018-10-09T13:56:39.579Z,24.59
2018-10-09T13:59:10.125Z,24.65
2018-10-09T14:01:40.142Z,24.74
2018-10-09T14:04:10.143Z,24.79
2018-10-09T14:06:42.646Z,24.85
2018-10-09T14:09:13.070Z,24.92
2018-10-09T14:11:43.229Z,24.97
2018-10-09T14:14:13.212Z,25.02
2018-10-09T14:16:43.868Z,25.06
2018-10-09T14:19:13.907Z,25.12
2018-10-09T14:21:44.681Z,25.14
2018-10-09T14:24:14.910Z,25.15
2018-10-09T14:26:46.031Z,25.15
2018-10-09T14:29:18.873Z,25.16
2018-10-09T14:31:50.071Z,25.19
2018-10-09T14:34:21.747Z,25.19
2018-10-09T14:36:52.316Z,25.21
2018-10-09T14:39:23.102Z,25.21
2018-10-09T14:41:53.615Z,25.21
2018-10-09T14:44:23.644Z,25.19
2018-10-09T14:46:55.655Z,25.15
2018-10-09T14:49:25.607Z,25.11
2018-10-09T14:51:58.645Z,25.06
2018-10-09T14:54:28.679Z,25.00
2018-10-09T14:56:58.673Z,24.95
2018-10-09T14:59:28.685Z,24.91
2018-10-09T15:01:58.691Z,24.87
2018-10-09T15:04:28.707Z,24.83
2018-10-09T15:06:58.692Z,24.76
2018-10-09T15:09:28.724Z,24.70
2018-10-09T15:12:02.142Z,24.62
2018-10-09T15:14:32.171Z,24.54
2018-10-09T15:17:05.425Z,24.45
2018-10-09T15:19:35.799Z,24.38
2018-10-09T15:22:07.152Z,24.28
2018-10-09T15:24:39.388Z,24.21
2018-10-09T15:27:09.386Z,24.12
2018-10-09T15:29:42.547Z,24.04
2018-10-09T15:32:16.141Z,23.95
2018-10-09T15:34:47.583Z,23.82
2018-10-09T15:37:18.440Z,23.71
2018-10-09T15:39:51.588Z,23.58
2018-10-09T15:42:21.534Z,23.48
2018-10-09T15:44:56.890Z,23.37
2018-10-09T15:47:29.109Z,23.24
2018-10-09T15:50:00.647Z,23.13
2018-10-09T15:52:31.364Z,23.00
2018-10-09T15:55:01.344Z,22.88
2018-10-09T15:57:31.597Z,22.75
2018-10-09T16:00:02.456Z,22.62
2018-10-09T16:02:32.483Z,22.48
2018-10-09T16:05:02.486Z,22.35
2018-10-09T16:07:32.498Z,22.21
2018-10-09T16:10:05.001Z,22.06
2018-10-09T16:12:35.354Z,21.92
2018-10-09T16:15:05.345Z,21.78
2018-10-09T16:17:35.347Z,21.66
2018-10-09T16:20:06.748Z,21.52
2018-10-09T16:22:36.810Z,21.39
2018-10-09T16:25:06.816Z,21.26
2018-10-09T16:27:36.842Z,21.14
2018-10-09T16:30:06.932Z,21.02
2018-10-09T16:32:37.014Z,20.90
2018-10-09T16:35:07.046Z,20.77
2018-10-09T16:37:37.039Z,20.66
2018-10-09T16:40:07.105Z,20.55
2018-10-09T16:42:37.053Z,20.43
2018-10-09T16:45:07.095Z,20.30
2018-10-09T16:47:37.094Z,20.17
2018-10-09T16:50:08.464Z,20.05
2018-10-09T16:52:38.499Z,19.92
2018-10-09T16:55:10.414Z,19.80
2018-10-09T16:57:40.560Z,19.68
2018-10-09T17:00:12.868Z,19.56
2018-10-09T17:02:44.414Z,19.45
2018-10-09T17:05:17.923Z,19.33
2018-10-09T17:07:56.545Z,19.22
2018-10-09T17:10:28.224Z,19.10
2018-10-09T17:13:02.728Z,18.99
2018-10-09T17:15:32.751Z,18.87
2018-10-09T17:18:03.547Z,18.77
2018-10-09T17:20:35.586Z,18.66
2018-10-09T17:23:06.332Z,18.55
2018-10-09T17:25:37.049Z,18.46
2018-10-09T17:28:08.535Z,18.37
2018-10-09T17:30:38.585Z,18.26
2018-10-09T17:33:12.274Z,18.17
2018-10-09T17:35:46.074Z,18.08
2018-10-09T17:38:20.407Z,18.00
2018-10-09T17:40:51.399Z,17.89
2018-10-09T17:43:21.385Z,17.81
2018-10-09T17:45:51.408Z,17.72
2018-10-09T17:48:21.711Z,17.63
2018-10-09T17:50:51.654Z,17.55
2018-10-09T17:53:21.799Z,17.45
2018-10-09T17:55:52.763Z,17.37
2018-10-09T17:58:23.259Z,17.28
2018-10-09T18:00:53.228Z,17.20
2018-10-09T18:03:23.247Z,17.12
2018-10-09T18:05:54.637Z,17.04
2018-10-09T18:08:25.229Z,16.97
2018-10-09T18:10:55.160Z,16.91
2018-10-09T18:13:25.139Z,16.83
2018-10-09T18:15:55.175Z,16.76
2018-10-09T18:18:25.219Z,16.70
2018-10-09T18:20:55.208Z,16.63
2018-10-09T18:23:25.287Z,16.56
2018-10-09T18:25:55.373Z,16.50
2018-10-09T18:28:25.438Z,16.44
2018-10-09T18:30:55.502Z,16.38
2018-10-09T18:33:25.663Z,16.31
2018-10-09T18:35:55.628Z,16.26
2018-10-09T18:38:25.688Z,16.20
2018-10-09T18:40:55.766Z,16.15
2018-10-09T18:43:25.723Z,16.09
2018-10-09T18:45:55.822Z,16.04
2018-10-09T18:48:25.839Z,15.99
2018-10-09T18:50:55.848Z,15.96
2018-10-09T18:53:25.833Z,15.92
2018-10-09T18:55:55.921Z,15.88
2018-10-09T18:58:25.983Z,15.85
2018-10-09T19:00:55.964Z,15.82
2018-10-09T19:03:25.971Z,15.79
2018-10-09T19:05:56.023Z,15.75
2018-10-09T19:08:26.076Z,15.73
2018-10-09T19:10:56.250Z,15.69
2018-10-09T19:13:26.239Z,15.66
2018-10-09T19:15:56.296Z,15.62
2018-10-09T19:18:26.374Z,15.58
2018-10-09T19:20:56.311Z,15.54
2018-10-09T19:23:26.350Z,15.51
2018-10-09T19:25:56.289Z,15.47
2018-10-09T19:28:26.396Z,15.43
2018-10-09T19:30:56.409Z,15.40
2018-10-09T19:33:26.483Z,15.36
2018-10-09T19:35:56.465Z,15.32
2018-10-09T19:38:26.561Z,15.28
2018-10-09T19:40:57.696Z,15.25
2018-10-09T19:43:28.063Z,15.21
2018-10-09T19:45:58.498Z,15.18
2018-10-09T19:48:28.734Z,15.15
2018-10-09T19:50:58.930Z,15.10
2018-10-09T19:53:28.935Z,15.08
2018-10-09T19:55:58.935Z,15.06
2018-10-09T19:58:28.924Z,15.03
2018-10-09T20:00:59.008Z,15.01
2018-10-09T20:03:29.005Z,14.99
2018-10-09T20:05:59.976Z,14.98
2018-10-09T20:08:30.087Z,14.95
2018-10-09T20:11:00.222Z,14.92
2018-10-09T20:13:30.203Z,14.91
2018-10-09T20:16:00.178Z,14.89
2018-10-09T20:18:30.218Z,14.87
2018-10-09T20:21:00.155Z,14.85
2018-10-09T20:23:30.553Z,14.83
2018-10-09T20:26:01.025Z,14.81
2018-10-09T20:28:30.997Z,14.81
2018-10-09T20:31:01.408Z,14.80
2018-10-09T20:33:31.506Z,14.79
2018-10-09T20:36:01.483Z,14.77
2018-10-09T20:38:32.628Z,14.76
2018-10-09T20:41:02.577Z,14.73
2018-10-09T20:43:33.302Z,14.72
2018-10-09T20:46:03.905Z,14.71
2018-10-09T20:48:33.891Z,14.69
2018-10-09T20:51:04.528Z,14.67
2018-10-09T20:53:36.561Z,14.65
2018-10-09T20:56:06.507Z,14.63
2018-10-09T20:58:36.514Z,14.61
2018-10-09T21:01:06.472Z,14.60
2018-10-09T21:03:39.447Z,14.58
2018-10-09T21:06:09.508Z,14.57
2018-10-09T21:08:40.829Z,14.55
2018-10-09T21:11:10.893Z,14.54
2018-10-09T21:13:41.518Z,14.52
2018-10-09T21:16:11.495Z,14.52
2018-10-09T21:18:42.147Z,14.51
2018-10-09T21:21:12.232Z,14.49
2018-10-09T21:23:42.390Z,14.48
2018-10-09T21:26:12.358Z,14.48
2018-10-09T21:28:42.362Z,14.47
2018-10-09T21:31:12.343Z,14.47
2018-10-09T21:33:42.351Z,14.46
2018-10-09T21:36:12.364Z,14.45
2018-10-09T21:38:43.732Z,14.43
2018-10-09T21:41:13.725Z,14.41
2018-10-09T21:43:43.705Z,14.41
2018-10-09T21:46:14.259Z,14.40
2018-10-09T21:48:44.297Z,14.40
2018-10-09T21:51:14.291Z,14.39
2018-10-09T21:53:44.268Z,14.38
2018-10-09T21:56:14.208Z,14.37
2018-10-09T21:58:44.199Z,14.36
2018-10-09T22:01:14.182Z,14.33
2018-10-09T22:03:45.683Z,14.31
2018-10-09T22:06:16.225Z,14.28
2018-10-09T22:08:47.997Z,14.26
2018-10-09T22:11:23.270Z,14.22
2018-10-09T22:13:53.897Z,14.19
2018-10-09T22:16:24.053Z,14.16
2018-10-09T22:18:56.716Z,14.12
2018-10-09T22:21:28.061Z,14.09
2018-10-09T22:23:59.605Z,14.07
2018-10-09T22:26:29.567Z,14.03
2018-10-09T22:29:00.771Z,13.99
2018-10-09T22:31:30.738Z,13.98
2018-10-09T22:34:03.503Z,13.95
2018-10-09T22:36:36.441Z,13.92
2018-10-09T22:39:10.261Z,13.91
2018-10-09T22:41:49.637Z,13.89
2018-10-09T22:44:21.633Z,13.86
2018-10-09T22:47:04.923Z,13.85
2018-10-09T22:49:38.837Z,13.83
2018-10-09T22:52:13.572Z,13.80
2018-10-09T22:54:47.537Z,13.78
2018-10-09T22:57:19.571Z,13.76
2018-10-09T22:59:49.526Z,13.74
2018-10-09T23:02:20.247Z,13.72
2018-10-09T23:04:50.179Z,13.71
2018-10-09T23:07:20.105Z,13.71
2018-10-09T23:09:50.079Z,13.71
2018-10-09T23:12:20.074Z,13.70
2018-10-09T23:14:50.739Z,13.70
2018-10-09T23:17:20.709Z,13.70
2018-10-09T23:19:51.336Z,13.70
2018-10-09T23:22:24.016Z,13.69
2018-10-09T23:24:56.871Z,13.70
2018-10-09T23:27:28.934Z,13.69
2018-10-09T23:30:00.390Z,13.70
2018-10-09T23:32:31.334Z,13.70
2018-10-09T23:35:01.314Z,13.68
2018-10-09T23:37:31.244Z,13.69
2018-10-09T23:40:01.907Z,13.69
2018-10-09T23:42:32.449Z,13.69
2018-10-09T23:45:02.388Z,13.69
2018-10-09T23:47:32.336Z,13.68
2018-10-09T23:50:02.279Z,13.67
2018-10-09T23:52:32.290Z,13.66
2018-10-09T23:55:03.127Z,13.65
2018-10-09T23:57:34.136Z,13.64
